Olds, Iowa
Current Conditions -  °F | °C
As of 3:35 PM on Friday 24 Oct 2014 (Local Time) from KAWG Reporting Station
Few Clouds Few Clouds  
Wind Chill: 66°   Ceiling: Unl
Heat Index: 66°   Visibility: 10mi
Dew Point: 63°   Wind: 13mph
Humidity: 88%   Direction: 180°S
Pressure: 29.92"   Gusts: 18mph
Location:  41.13°N, 91.54°W
Report Text: KAWG 242035Z AUTO 18011G16KT 10SM FEW018 19/17 A2992 RMK AO2
Loading
Personal Weather Stations






























Interactive Weather Map
Tropical Storm Tracking
New forecast layout! Learn more

10-Day Weather Forecast

Advertisements
Track Severe Weather on mobile